sensor_id;sensor_type;location;lat;lon;timestamp;P1;durP1;ratioP1;P2;durP2;ratioP2
71869;SDS011;59739;47.696;11.746;2023-01-28T00:00:57;17.20;;;8.05;;
71869;SDS011;59739;47.696;11.746;2023-01-28T00:03:23;17.15;;;7.60;;
71869;SDS011;59739;47.696;11.746;2023-01-28T00:05:49;16.83;;;6.85;;
71869;SDS011;59739;47.696;11.746;2023-01-28T00:08:15;16.80;;;7.80;;
71869;SDS011;59739;47.696;11.746;2023-01-28T00:10:42;14.45;;;7.63;;
71869;SDS011;59739;47.696;11.746;2023-01-28T00:13:08;16.67;;;8.15;;
71869;SDS011;59739;47.696;11.746;2023-01-28T00:15:38;16.42;;;8.20;;
71869;SDS011;59739;47.696;11.746;2023-01-28T00:18:04;14.07;;;8.13;;
71869;SDS011;59739;47.696;11.746;2023-01-28T00:20:30;17.73;;;8.48;;
71869;SDS011;59739;47.696;11.746;2023-01-28T00:22:56;18.27;;;9.43;;
71869;SDS011;59739;47.696;11.746;2023-01-28T00:25:22;20.33;;;10.40;;
71869;SDS011;59739;47.696;11.746;2023-01-28T00:27:48;15.20;;;8.90;;
71869;SDS011;59739;47.696;11.746;2023-01-28T00:30:15;16.25;;;8.48;;
71869;SDS011;59739;47.696;11.746;2023-01-28T00:32:41;19.13;;;10.18;;
71869;SDS011;59739;47.696;11.746;2023-01-28T00:35:07;18.38;;;9.95;;
71869;SDS011;59739;47.696;11.746;2023-01-28T00:37:34;23.38;;;11.85;;
71869;SDS011;59739;47.696;11.746;2023-01-28T00:40:00;22.35;;;11.25;;
71869;SDS011;59739;47.696;11.746;2023-01-28T00:42:27;22.15;;;10.23;;
71869;SDS011;59739;47.696;11.746;2023-01-28T00:44:54;20.58;;;10.23;;
71869;SDS011;59739;47.696;11.746;2023-01-28T00:47:20;24.60;;;11.93;;
71869;SDS011;59739;47.696;11.746;2023-01-28T00:49:46;21.35;;;11.07;;
71869;SDS011;59739;47.696;11.746;2023-01-28T00:52:12;19.92;;;10.18;;
71869;SDS011;59739;47.696;11.746;2023-01-28T00:54:38;20.95;;;11.30;;
71869;SDS011;59739;47.696;11.746;2023-01-28T00:57:04;20.95;;;11.40;;
71869;SDS011;59739;47.696;11.746;2023-01-28T00:59:32;20.63;;;10.75;;
71869;SDS011;59739;47.696;11.746;2023-01-28T01:01:57;25.30;;;11.50;;
71869;SDS011;59739;47.696;11.746;2023-01-28T01:04:37;22.05;;;10.32;;
71869;SDS011;59739;47.696;11.746;2023-01-28T01:07:03;21.90;;;10.48;;
71869;SDS011;59739;47.696;11.746;2023-01-28T01:09:29;19.13;;;9.95;;
71869;SDS011;59739;47.696;11.746;2023-01-28T01:11:55;20.77;;;11.60;;
71869;SDS011;59739;47.696;11.746;2023-01-28T01:14:22;24.13;;;11.30;;
71869;SDS011;59739;47.696;11.746;2023-01-28T01:16:48;23.52;;;12.05;;
71869;SDS011;59739;47.696;11.746;2023-01-28T01:19:17;20.67;;;10.40;;
71869;SDS011;59739;47.696;11.746;2023-01-28T01:21:43;24.33;;;11.50;;
71869;SDS011;59739;47.696;11.746;2023-01-28T01:24:14;21.77;;;12.10;;
71869;SDS011;59739;47.696;11.746;2023-01-28T01:26:40;18.55;;;10.40;;
71869;SDS011;59739;47.696;11.746;2023-01-28T01:29:06;20.95;;;10.88;;
71869;SDS011;59739;47.696;11.746;2023-01-28T01:31:33;21.05;;;11.18;;
71869;SDS011;59739;47.696;11.746;2023-01-28T01:33:59;23.23;;;12.07;;
71869;SDS011;59739;47.696;11.746;2023-01-28T01:36:25;20.25;;;11.30;;
71869;SDS011;59739;47.696;11.746;2023-01-28T01:38:52;21.10;;;10.27;;
71869;SDS011;59739;47.696;11.746;2023-01-28T01:41:23;24.00;;;12.55;;
71869;SDS011;59739;47.696;11.746;2023-01-28T01:46:37;20.50;;;12.23;;
71869;SDS011;59739;47.696;11.746;2023-01-28T01:49:21;18.55;;;10.48;;
71869;SDS011;59739;47.696;11.746;2023-01-28T01:51:53;19.88;;;10.02;;
71869;SDS011;59739;47.696;11.746;2023-01-28T01:54:30;20.45;;;10.88;;
71869;SDS011;59739;47.696;11.746;2023-01-28T01:56:57;20.55;;;10.48;;
71869;SDS011;59739;47.696;11.746;2023-01-28T01:59:26;19.38;;;10.30;;
71869;SDS011;59739;47.696;11.746;2023-01-28T02:01:55;22.08;;;9.55;;
71869;SDS011;59739;47.696;11.746;2023-01-28T02:04:28;19.42;;;10.55;;
71869;SDS011;59739;47.696;11.746;2023-01-28T02:06:59;19.27;;;10.10;;
71869;SDS011;59739;47.696;11.746;2023-01-28T02:09:30;19.92;;;10.82;;
71869;SDS011;59739;47.696;11.746;2023-01-28T02:14:43;17.70;;;9.70;;
71869;SDS011;59739;47.696;11.746;2023-01-28T02:17:13;21.33;;;10.90;;
71869;SDS011;59739;47.696;11.746;2023-01-28T02:19:52;20.77;;;11.82;;
71869;SDS011;59739;47.696;11.746;2023-01-28T02:28:26;22.30;;;10.68;;
71869;SDS011;59739;47.696;11.746;2023-01-28T02:31:09;26.17;;;12.85;;
71869;SDS011;59739;47.696;11.746;2023-01-28T02:33:43;21.90;;;11.23;;
71869;SDS011;59739;47.696;11.746;2023-01-28T02:39:32;27.15;;;11.50;;
71869;SDS011;59739;47.696;11.746;2023-01-28T02:44:49;24.15;;;11.52;;
71869;SDS011;59739;47.696;11.746;2023-01-28T02:47:15;22.92;;;12.32;;
71869;SDS011;59739;47.696;11.746;2023-01-28T02:50:03;22.83;;;11.65;;
71869;SDS011;59739;47.696;11.746;2023-01-28T03:02:05;21.73;;;11.38;;
71869;SDS011;59739;47.696;11.746;2023-01-28T03:07:33;26.58;;;12.23;;
71869;SDS011;59739;47.696;11.746;2023-01-28T03:10:03;25.65;;;12.60;;
71869;SDS011;59739;47.696;11.746;2023-01-28T03:12:34;21.55;;;11.20;;
71869;SDS011;59739;47.696;11.746;2023-01-28T03:18:43;22.02;;;10.45;;
71869;SDS011;59739;47.696;11.746;2023-01-28T03:24:30;23.38;;;11.50;;
71869;SDS011;59739;47.696;11.746;2023-01-28T03:27:25;24.65;;;11.10;;
71869;SDS011;59739;47.696;11.746;2023-01-28T03:30:26;24.40;;;12.27;;
71869;SDS011;59739;47.696;11.746;2023-01-28T03:33:33;24.25;;;11.93;;
71869;SDS011;59739;47.696;11.746;2023-01-28T03:36:19;26.17;;;13.20;;
71869;SDS011;59739;47.696;11.746;2023-01-28T03:39:05;31.35;;;13.20;;
71869;SDS011;59739;47.696;11.746;2023-01-28T03:41:31;25.90;;;12.98;;
71869;SDS011;59739;47.696;11.746;2023-01-28T03:43:57;28.27;;;12.80;;
71869;SDS011;59739;47.696;11.746;2023-01-28T03:46:44;26.38;;;13.18;;
71869;SDS011;59739;47.696;11.746;2023-01-28T03:49:12;26.08;;;13.23;;
71869;SDS011;59739;47.696;11.746;2023-01-28T03:51:38;26.67;;;13.25;;
71869;SDS011;59739;47.696;11.746;2023-01-28T03:54:05;31.52;;;14.10;;
71869;SDS011;59739;47.696;11.746;2023-01-28T03:56:31;21.88;;;10.75;;
71869;SDS011;59739;47.696;11.746;2023-01-28T03:59:01;27.08;;;10.50;;
71869;SDS011;59739;47.696;11.746;2023-01-28T04:01:28;27.83;;;12.13;;
71869;SDS011;59739;47.696;11.746;2023-01-28T04:03:55;24.48;;;11.50;;
71869;SDS011;59739;47.696;11.746;2023-01-28T04:06:25;22.00;;;11.18;;
71869;SDS011;59739;47.696;11.746;2023-01-28T04:08:57;22.83;;;11.55;;
71869;SDS011;59739;47.696;11.746;2023-01-28T04:14:07;24.23;;;9.98;;
71869;SDS011;59739;47.696;11.746;2023-01-28T04:16:43;25.58;;;11.98;;
71869;SDS011;59739;47.696;11.746;2023-01-28T04:19:09;21.52;;;10.30;;
71869;SDS011;59739;47.696;11.746;2023-01-28T04:21:39;26.13;;;11.50;;
71869;SDS011;59739;47.696;11.746;2023-01-28T04:24:06;27.88;;;11.65;;
71869;SDS011;59739;47.696;11.746;2023-01-28T04:26:34;24.83;;;11.35;;
71869;SDS011;59739;47.696;11.746;2023-01-28T04:29:00;27.95;;;12.38;;
71869;SDS011;59739;47.696;11.746;2023-01-28T04:31:27;25.00;;;10.80;;
71869;SDS011;59739;47.696;11.746;2023-01-28T04:34:04;23.75;;;11.68;;
71869;SDS011;59739;47.696;11.746;2023-01-28T04:36:48;22.33;;;11.45;;
71869;SDS011;59739;47.696;11.746;2023-01-28T04:39:33;21.65;;;11.00;;
71869;SDS011;59739;47.696;11.746;2023-01-28T04:42:22;23.10;;;10.48;;
71869;SDS011;59739;47.696;11.746;2023-01-28T04:45:11;22.35;;;11.07;;
71869;SDS011;59739;47.696;11.746;2023-01-28T04:47:55;23.63;;;11.25;;
71869;SDS011;59739;47.696;11.746;2023-01-28T04:50:29;23.08;;;11.13;;
71869;SDS011;59739;47.696;11.746;2023-01-28T04:53:04;19.35;;;9.93;;
71869;SDS011;59739;47.696;11.746;2023-01-28T04:55:46;23.73;;;10.52;;
71869;SDS011;59739;47.696;11.746;2023-01-28T04:58:13;21.20;;;10.10;;
71869;SDS011;59739;47.696;11.746;2023-01-28T05:00:40;19.65;;;9.82;;
71869;SDS011;59739;47.696;11.746;2023-01-28T05:03:07;23.13;;;9.93;;
71869;SDS011;59739;47.696;11.746;2023-01-28T05:05:33;20.90;;;10.35;;
71869;SDS011;59739;47.696;11.746;2023-01-28T05:08:14;21.75;;;10.02;;
71869;SDS011;59739;47.696;11.746;2023-01-28T05:10:42;19.52;;;9.65;;
71869;SDS011;59739;47.696;11.746;2023-01-28T05:13:09;19.33;;;9.82;;
71869;SDS011;59739;47.696;11.746;2023-01-28T05:15:36;22.98;;;10.65;;
71869;SDS011;59739;47.696;11.746;2023-01-28T05:18:02;25.40;;;11.93;;
71869;SDS011;59739;47.696;11.746;2023-01-28T05:20:34;23.10;;;11.93;;
71869;SDS011;59739;47.696;11.746;2023-01-28T05:23:01;23.52;;;11.13;;
71869;SDS011;59739;47.696;11.746;2023-01-28T05:25:39;21.52;;;9.48;;
71869;SDS011;59739;47.696;11.746;2023-01-28T05:28:05;20.65;;;9.75;;
71869;SDS011;59739;47.696;11.746;2023-01-28T05:30:31;19.27;;;10.43;;
71869;SDS011;59739;47.696;11.746;2023-01-28T05:32:57;18.88;;;11.02;;
71869;SDS011;59739;47.696;11.746;2023-01-28T05:35:23;19.95;;;9.88;;
71869;SDS011;59739;47.696;11.746;2023-01-28T05:37:49;21.52;;;9.32;;
71869;SDS011;59739;47.696;11.746;2023-01-28T05:40:17;20.38;;;11.05;;
71869;SDS011;59739;47.696;11.746;2023-01-28T05:42:43;21.17;;;9.63;;
71869;SDS011;59739;47.696;11.746;2023-01-28T05:45:47;19.25;;;9.10;;
71869;SDS011;59739;47.696;11.746;2023-01-28T05:48:21;20.15;;;9.82;;
71869;SDS011;59739;47.696;11.746;2023-01-28T05:51:16;19.38;;;8.40;;
71869;SDS011;59739;47.696;11.746;2023-01-28T05:53:51;24.40;;;11.18;;
71869;SDS011;59739;47.696;11.746;2023-01-28T05:56:16;22.48;;;10.63;;
71869;SDS011;59739;47.696;11.746;2023-01-28T05:58:43;19.30;;;9.15;;
71869;SDS011;59739;47.696;11.746;2023-01-28T06:01:09;20.25;;;9.20;;
71869;SDS011;59739;47.696;11.746;2023-01-28T06:03:39;16.98;;;8.30;;
71869;SDS011;59739;47.696;11.746;2023-01-28T06:06:05;19.73;;;9.10;;
71869;SDS011;59739;47.696;11.746;2023-01-28T06:08:31;17.92;;;8.82;;
71869;SDS011;59739;47.696;11.746;2023-01-28T06:10:58;19.20;;;9.32;;
71869;SDS011;59739;47.696;11.746;2023-01-28T06:13:24;18.33;;;8.63;;
71869;SDS011;59739;47.696;11.746;2023-01-28T06:15:50;18.00;;;8.65;;
71869;SDS011;59739;47.696;11.746;2023-01-28T06:18:25;16.60;;;7.75;;
71869;SDS011;59739;47.696;11.746;2023-01-28T06:20:52;19.50;;;9.02;;
71869;SDS011;59739;47.696;11.746;2023-01-28T06:23:18;17.80;;;8.40;;
71869;SDS011;59739;47.696;11.746;2023-01-28T06:25:44;16.10;;;8.48;;
71869;SDS011;59739;47.696;11.746;2023-01-28T06:28:12;15.73;;;7.82;;
71869;SDS011;59739;47.696;11.746;2023-01-28T06:30:38;17.55;;;9.00;;
71869;SDS011;59739;47.696;11.746;2023-01-28T06:33:04;16.45;;;7.72;;
71869;SDS011;59739;47.696;11.746;2023-01-28T06:35:30;16.23;;;8.48;;
71869;SDS011;59739;47.696;11.746;2023-01-28T06:37:56;16.27;;;7.75;;
71869;SDS011;59739;47.696;11.746;2023-01-28T06:40:22;13.48;;;6.20;;
71869;SDS011;59739;47.696;11.746;2023-01-28T06:42:49;17.10;;;8.48;;
71869;SDS011;59739;47.696;11.746;2023-01-28T06:45:15;16.50;;;7.95;;
71869;SDS011;59739;47.696;11.746;2023-01-28T06:47:42;15.85;;;8.35;;
71869;SDS011;59739;47.696;11.746;2023-01-28T06:50:08;19.08;;;9.75;;
71869;SDS011;59739;47.696;11.746;2023-01-28T06:52:34;18.10;;;8.82;;
71869;SDS011;59739;47.696;11.746;2023-01-28T06:55:00;18.02;;;8.95;;
71869;SDS011;59739;47.696;11.746;2023-01-28T06:57:26;17.17;;;7.70;;
71869;SDS011;59739;47.696;11.746;2023-01-28T06:59:52;17.88;;;8.38;;
71869;SDS011;59739;47.696;11.746;2023-01-28T07:02:18;17.67;;;9.50;;
71869;SDS011;59739;47.696;11.746;2023-01-28T07:04:44;16.52;;;8.07;;
71869;SDS011;59739;47.696;11.746;2023-01-28T07:07:10;20.30;;;9.05;;
71869;SDS011;59739;47.696;11.746;2023-01-28T07:09:36;17.85;;;9.50;;
71869;SDS011;59739;47.696;11.746;2023-01-28T07:12:02;19.15;;;10.18;;
71869;SDS011;59739;47.696;11.746;2023-01-28T07:14:30;17.60;;;8.85;;
71869;SDS011;59739;47.696;11.746;2023-01-28T07:16:56;18.42;;;8.48;;
71869;SDS011;59739;47.696;11.746;2023-01-28T07:19:22;20.20;;;9.38;;
71869;SDS011;59739;47.696;11.746;2023-01-28T07:21:48;17.42;;;8.80;;
71869;SDS011;59739;47.696;11.746;2023-01-28T07:24:14;19.75;;;9.75;;
71869;SDS011;59739;47.696;11.746;2023-01-28T07:26:40;17.30;;;8.90;;
71869;SDS011;59739;47.696;11.746;2023-01-28T07:29:11;19.02;;;9.27;;
71869;SDS011;59739;47.696;11.746;2023-01-28T07:31:37;18.05;;;10.07;;
71869;SDS011;59739;47.696;11.746;2023-01-28T07:34:03;19.52;;;9.85;;
71869;SDS011;59739;47.696;11.746;2023-01-28T07:36:30;17.73;;;8.27;;
71869;SDS011;59739;47.696;11.746;2023-01-28T07:38:55;19.02;;;8.80;;
71869;SDS011;59739;47.696;11.746;2023-01-28T07:41:21;13.90;;;7.57;;
71869;SDS011;59739;47.696;11.746;2023-01-28T07:43:47;17.02;;;8.70;;
71869;SDS011;59739;47.696;11.746;2023-01-28T07:46:13;14.85;;;7.00;;
71869;SDS011;59739;47.696;11.746;2023-01-28T07:48:39;14.38;;;7.20;;
71869;SDS011;59739;47.696;11.746;2023-01-28T07:51:05;12.63;;;6.00;;
71869;SDS011;59739;47.696;11.746;2023-01-28T07:53:31;11.55;;;6.53;;
71869;SDS011;59739;47.696;11.746;2023-01-28T07:55:58;13.13;;;6.60;;
71869;SDS011;59739;47.696;11.746;2023-01-28T07:58:25;9.60;;;4.90;;
71869;SDS011;59739;47.696;11.746;2023-01-28T08:00:54;9.77;;;5.20;;
71869;SDS011;59739;47.696;11.746;2023-01-28T08:03:25;12.63;;;5.35;;
71869;SDS011;59739;47.696;11.746;2023-01-28T08:05:52;12.30;;;5.13;;
71869;SDS011;59739;47.696;11.746;2023-01-28T08:08:21;7.35;;;4.68;;
71869;SDS011;59739;47.696;11.746;2023-01-28T08:10:48;8.80;;;5.00;;
71869;SDS011;59739;47.696;11.746;2023-01-28T08:13:15;10.32;;;5.43;;
71869;SDS011;59739;47.696;11.746;2023-01-28T08:15:42;11.15;;;6.10;;
71869;SDS011;59739;47.696;11.746;2023-01-28T08:18:10;29.45;;;12.77;;
71869;SDS011;59739;47.696;11.746;2023-01-28T08:20:38;17.58;;;8.75;;
71869;SDS011;59739;47.696;11.746;2023-01-28T08:25:33;11.60;;;6.35;;
71869;SDS011;59739;47.696;11.746;2023-01-28T08:27:59;14.23;;;7.43;;
71869;SDS011;59739;47.696;11.746;2023-01-28T08:30:26;12.50;;;7.03;;
71869;SDS011;59739;47.696;11.746;2023-01-28T08:32:56;13.65;;;7.28;;
71869;SDS011;59739;47.696;11.746;2023-01-28T08:35:27;13.55;;;7.03;;
71869;SDS011;59739;47.696;11.746;2023-01-28T08:37:53;16.52;;;8.45;;
71869;SDS011;59739;47.696;11.746;2023-01-28T08:40:19;17.77;;;9.25;;
71869;SDS011;59739;47.696;11.746;2023-01-28T08:42:49;15.98;;;9.32;;
71869;SDS011;59739;47.696;11.746;2023-01-28T08:45:17;16.95;;;8.38;;
71869;SDS011;59739;47.696;11.746;2023-01-28T08:47:49;16.23;;;7.32;;
71869;SDS011;59739;47.696;11.746;2023-01-28T08:50:26;18.55;;;8.23;;
71869;SDS011;59739;47.696;11.746;2023-01-28T08:53:02;16.92;;;8.00;;
71869;SDS011;59739;47.696;11.746;2023-01-28T08:55:32;16.35;;;7.88;;
71869;SDS011;59739;47.696;11.746;2023-01-28T08:58:03;17.60;;;8.57;;
71869;SDS011;59739;47.696;11.746;2023-01-28T09:00:37;22.45;;;10.13;;
71869;SDS011;59739;47.696;11.746;2023-01-28T09:03:05;21.13;;;9.50;;
71869;SDS011;59739;47.696;11.746;2023-01-28T09:05:32;20.05;;;9.88;;
71869;SDS011;59739;47.696;11.746;2023-01-28T09:08:00;24.02;;;10.80;;
71869;SDS011;59739;47.696;11.746;2023-01-28T09:10:30;23.48;;;9.75;;
71869;SDS011;59739;47.696;11.746;2023-01-28T09:12:56;21.33;;;10.80;;
71869;SDS011;59739;47.696;11.746;2023-01-28T09:15:22;22.65;;;10.50;;
71869;SDS011;59739;47.696;11.746;2023-01-28T09:17:48;24.77;;;11.23;;
71869;SDS011;59739;47.696;11.746;2023-01-28T09:20:14;18.92;;;9.55;;
71869;SDS011;59739;47.696;11.746;2023-01-28T09:22:41;22.30;;;10.30;;
71869;SDS011;59739;47.696;11.746;2023-01-28T09:25:07;25.70;;;12.15;;
71869;SDS011;59739;47.696;11.746;2023-01-28T09:27:33;21.30;;;9.85;;
71869;SDS011;59739;47.696;11.746;2023-01-28T09:29:59;20.50;;;10.48;;
71869;SDS011;59739;47.696;11.746;2023-01-28T09:32:25;21.83;;;10.25;;
71869;SDS011;59739;47.696;11.746;2023-01-28T09:34:51;20.58;;;10.25;;
71869;SDS011;59739;47.696;11.746;2023-01-28T09:37:17;21.95;;;10.00;;
71869;SDS011;59739;47.696;11.746;2023-01-28T09:39:43;21.27;;;10.23;;
71869;SDS011;59739;47.696;11.746;2023-01-28T09:42:14;21.85;;;11.02;;
71869;SDS011;59739;47.696;11.746;2023-01-28T09:45:06;21.70;;;11.05;;
71869;SDS011;59739;47.696;11.746;2023-01-28T09:47:46;20.23;;;9.90;;
71869;SDS011;59739;47.696;11.746;2023-01-28T09:50:17;25.15;;;10.60;;
71869;SDS011;59739;47.696;11.746;2023-01-28T09:53:12;25.40;;;11.68;;
71869;SDS011;59739;47.696;11.746;2023-01-28T09:55:53;21.20;;;10.55;;
71869;SDS011;59739;47.696;11.746;2023-01-28T09:58:27;23.63;;;11.05;;
71869;SDS011;59739;47.696;11.746;2023-01-28T10:03:53;18.60;;;8.40;;
71869;SDS011;59739;47.696;11.746;2023-01-28T10:06:40;22.05;;;10.48;;
71869;SDS011;59739;47.696;11.746;2023-01-28T10:15:09;27.00;;;11.05;;
71869;SDS011;59739;47.696;11.746;2023-01-28T10:18:04;20.05;;;10.10;;
71869;SDS011;59739;47.696;11.746;2023-01-28T10:20:46;21.88;;;11.07;;
71869;SDS011;59739;47.696;11.746;2023-01-28T10:23:29;18.27;;;9.27;;
71869;SDS011;59739;47.696;11.746;2023-01-28T10:26:19;22.00;;;10.48;;
71869;SDS011;59739;47.696;11.746;2023-01-28T10:28:53;21.02;;;10.05;;
71869;SDS011;59739;47.696;11.746;2023-01-28T10:31:27;19.63;;;10.60;;
71869;SDS011;59739;47.696;11.746;2023-01-28T10:33:59;20.98;;;9.52;;
71869;SDS011;59739;47.696;11.746;2023-01-28T10:36:26;21.65;;;10.52;;
71869;SDS011;59739;47.696;11.746;2023-01-28T10:38:54;20.33;;;10.30;;
71869;SDS011;59739;47.696;11.746;2023-01-28T10:41:20;18.63;;;8.95;;
71869;SDS011;59739;47.696;11.746;2023-01-28T10:43:47;22.63;;;9.82;;
71869;SDS011;59739;47.696;11.746;2023-01-28T10:46:18;18.08;;;8.98;;
71869;SDS011;59739;47.696;11.746;2023-01-28T10:49:15;20.13;;;9.18;;
71869;SDS011;59739;47.696;11.746;2023-01-28T10:51:49;21.77;;;10.05;;
71869;SDS011;59739;47.696;11.746;2023-01-28T10:54:22;24.70;;;10.95;;
71869;SDS011;59739;47.696;11.746;2023-01-28T10:57:02;18.13;;;9.52;;
71869;SDS011;59739;47.696;11.746;2023-01-28T10:59:37;18.65;;;8.82;;
71869;SDS011;59739;47.696;11.746;2023-01-28T11:02:28;19.60;;;9.80;;
71869;SDS011;59739;47.696;11.746;2023-01-28T11:05:05;19.77;;;10.20;;
71869;SDS011;59739;47.696;11.746;2023-01-28T11:07:42;20.73;;;8.82;;
71869;SDS011;59739;47.696;11.746;2023-01-28T11:13:03;22.15;;;10.25;;
71869;SDS011;59739;47.696;11.746;2023-01-28T11:15:40;20.45;;;9.75;;
71869;SDS011;59739;47.696;11.746;2023-01-28T11:18:14;15.27;;;7.20;;
71869;SDS011;59739;47.696;11.746;2023-01-28T11:20:51;17.08;;;8.25;;
71869;SDS011;59739;47.696;11.746;2023-01-28T11:23:57;18.40;;;9.10;;
71869;SDS011;59739;47.696;11.746;2023-01-28T11:26:28;14.25;;;7.82;;
71869;SDS011;59739;47.696;11.746;2023-01-28T11:29:01;15.35;;;7.57;;
71869;SDS011;59739;47.696;11.746;2023-01-28T11:31:27;15.73;;;7.93;;
71869;SDS011;59739;47.696;11.746;2023-01-28T11:34:00;16.45;;;7.78;;
71869;SDS011;59739;47.696;11.746;2023-01-28T11:36:30;14.18;;;7.13;;
71869;SDS011;59739;47.696;11.746;2023-01-28T11:39:02;14.52;;;7.20;;
71869;SDS011;59739;47.696;11.746;2023-01-28T11:41:45;12.68;;;6.53;;
71869;SDS011;59739;47.696;11.746;2023-01-28T11:49:46;16.35;;;8.35;;
71869;SDS011;59739;47.696;11.746;2023-01-28T11:52:30;15.55;;;7.78;;
71869;SDS011;59739;47.696;11.746;2023-01-28T12:04:12;15.93;;;7.38;;
71869;SDS011;59739;47.696;11.746;2023-01-28T12:09:54;17.92;;;8.52;;
71869;SDS011;59739;47.696;11.746;2023-01-28T12:12:30;18.77;;;9.95;;
71869;SDS011;59739;47.696;11.746;2023-01-28T12:24:58;16.80;;;8.60;;
71869;SDS011;59739;47.696;11.746;2023-01-28T12:31:02;19.80;;;9.13;;
71869;SDS011;59739;47.696;11.746;2023-01-28T12:42:24;15.13;;;8.52;;
71869;SDS011;59739;47.696;11.746;2023-01-28T12:45:00;18.02;;;8.75;;
71869;SDS011;59739;47.696;11.746;2023-01-28T12:47:38;16.52;;;8.52;;
71869;SDS011;59739;47.696;11.746;2023-01-28T12:50:10;13.90;;;6.80;;
71869;SDS011;59739;47.696;11.746;2023-01-28T12:52:46;11.50;;;6.32;;
71869;SDS011;59739;47.696;11.746;2023-01-28T12:55:45;12.18;;;6.55;;
71869;SDS011;59739;47.696;11.746;2023-01-28T13:01:28;12.60;;;7.25;;
71869;SDS011;59739;47.696;11.746;2023-01-28T13:07:06;13.25;;;8.00;;
71869;SDS011;59739;47.696;11.746;2023-01-28T13:09:48;14.18;;;7.13;;
71869;SDS011;59739;47.696;11.746;2023-01-28T13:12:28;13.77;;;7.45;;
71869;SDS011;59739;47.696;11.746;2023-01-28T13:14:57;10.40;;;6.00;;
71869;SDS011;59739;47.696;11.746;2023-01-28T13:17:25;12.30;;;7.32;;
71869;SDS011;59739;47.696;11.746;2023-01-28T13:19:54;13.15;;;6.97;;
71869;SDS011;59739;47.696;11.746;2023-01-28T13:22:25;13.65;;;8.13;;
71869;SDS011;59739;47.696;11.746;2023-01-28T13:24:52;16.10;;;8.77;;
71869;SDS011;59739;47.696;11.746;2023-01-28T13:27:23;14.02;;;7.72;;
71869;SDS011;59739;47.696;11.746;2023-01-28T13:30:17;13.07;;;8.43;;
71869;SDS011;59739;47.696;11.746;2023-01-28T13:32:58;13.85;;;7.40;;
71869;SDS011;59739;47.696;11.746;2023-01-28T13:35:34;14.38;;;7.47;;
71869;SDS011;59739;47.696;11.746;2023-01-28T13:38:12;17.70;;;10.10;;
71869;SDS011;59739;47.696;11.746;2023-01-28T13:40:51;15.23;;;8.38;;
71869;SDS011;59739;47.696;11.746;2023-01-28T13:46:04;20.40;;;11.43;;
71869;SDS011;59739;47.696;11.746;2023-01-28T13:48:41;14.13;;;7.95;;
71869;SDS011;59739;47.696;11.746;2023-01-28T13:51:28;13.02;;;7.65;;
71869;SDS011;59739;47.696;11.746;2023-01-28T13:53:59;13.88;;;6.47;;
71869;SDS011;59739;47.696;11.746;2023-01-28T14:02:20;14.45;;;8.45;;
71869;SDS011;59739;47.696;11.746;2023-01-28T14:17:21;13.95;;;8.10;;
71869;SDS011;59739;47.696;11.746;2023-01-28T14:20:12;15.30;;;8.52;;
71869;SDS011;59739;47.696;11.746;2023-01-28T14:22:46;15.25;;;8.85;;
71869;SDS011;59739;47.696;11.746;2023-01-28T14:25:15;15.63;;;8.57;;
71869;SDS011;59739;47.696;11.746;2023-01-28T14:27:47;19.00;;;9.88;;
71869;SDS011;59739;47.696;11.746;2023-01-28T14:30:35;15.20;;;9.15;;
71869;SDS011;59739;47.696;11.746;2023-01-28T14:33:13;15.40;;;9.30;;
71869;SDS011;59739;47.696;11.746;2023-01-28T14:35:42;18.40;;;9.80;;
71869;SDS011;59739;47.696;11.746;2023-01-28T14:38:13;16.40;;;8.82;;
71869;SDS011;59739;47.696;11.746;2023-01-28T14:40:47;17.40;;;10.32;;
71869;SDS011;59739;47.696;11.746;2023-01-28T14:43:16;15.43;;;9.43;;
71869;SDS011;59739;47.696;11.746;2023-01-28T14:57:38;16.90;;;9.90;;
71869;SDS011;59739;47.696;11.746;2023-01-28T15:00:27;15.48;;;8.23;;
71869;SDS011;59739;47.696;11.746;2023-01-28T15:02:57;16.42;;;9.38;;
71869;SDS011;59739;47.696;11.746;2023-01-28T15:05:24;19.63;;;10.25;;
71869;SDS011;59739;47.696;11.746;2023-01-28T15:07:52;17.15;;;9.85;;
71869;SDS011;59739;47.696;11.746;2023-01-28T15:13:09;18.48;;;10.20;;
71869;SDS011;59739;47.696;11.746;2023-01-28T15:15:49;20.48;;;11.43;;
71869;SDS011;59739;47.696;11.746;2023-01-28T15:18:25;18.95;;;10.27;;
71869;SDS011;59739;47.696;11.746;2023-01-28T15:20:56;19.77;;;10.20;;
71869;SDS011;59739;47.696;11.746;2023-01-28T15:23:28;17.45;;;9.43;;
71869;SDS011;59739;47.696;11.746;2023-01-28T15:25:59;17.20;;;9.65;;
71869;SDS011;59739;47.696;11.746;2023-01-28T15:28:41;19.20;;;10.07;;
71869;SDS011;59739;47.696;11.746;2023-01-28T15:31:18;16.90;;;9.93;;
71869;SDS011;59739;47.696;11.746;2023-01-28T15:34:01;20.05;;;10.63;;
71869;SDS011;59739;47.696;11.746;2023-01-28T15:36:36;20.80;;;10.80;;
71869;SDS011;59739;47.696;11.746;2023-01-28T15:39:02;17.23;;;9.82;;
71869;SDS011;59739;47.696;11.746;2023-01-28T15:41:38;19.23;;;10.52;;
71869;SDS011;59739;47.696;11.746;2023-01-28T15:44:43;18.00;;;10.45;;
71869;SDS011;59739;47.696;11.746;2023-01-28T15:47:30;20.33;;;10.57;;
71869;SDS011;59739;47.696;11.746;2023-01-28T15:50:02;18.33;;;10.43;;
71869;SDS011;59739;47.696;11.746;2023-01-28T15:52:35;21.60;;;11.75;;
71869;SDS011;59739;47.696;11.746;2023-01-28T15:55:05;24.00;;;13.32;;
71869;SDS011;59739;47.696;11.746;2023-01-28T15:57:45;19.90;;;10.90;;
71869;SDS011;59739;47.696;11.746;2023-01-28T16:00:13;21.35;;;10.85;;
71869;SDS011;59739;47.696;11.746;2023-01-28T16:02:43;20.58;;;10.93;;
71869;SDS011;59739;47.696;11.746;2023-01-28T16:05:23;23.30;;;12.45;;
71869;SDS011;59739;47.696;11.746;2023-01-28T16:07:53;21.67;;;11.82;;
71869;SDS011;59739;47.696;11.746;2023-01-28T16:10:25;22.58;;;11.20;;
71869;SDS011;59739;47.696;11.746;2023-01-28T16:15:54;19.10;;;11.52;;
71869;SDS011;59739;47.696;11.746;2023-01-28T16:20:55;23.30;;;11.57;;
71869;SDS011;59739;47.696;11.746;2023-01-28T16:23:23;21.25;;;12.23;;
71869;SDS011;59739;47.696;11.746;2023-01-28T16:26:04;22.83;;;11.93;;
71869;SDS011;59739;47.696;11.746;2023-01-28T16:28:45;21.38;;;12.05;;
71869;SDS011;59739;47.696;11.746;2023-01-28T16:31:11;21.02;;;11.50;;
71869;SDS011;59739;47.696;11.746;2023-01-28T16:33:37;23.23;;;11.98;;
71869;SDS011;59739;47.696;11.746;2023-01-28T16:36:03;19.80;;;10.68;;
71869;SDS011;59739;47.696;11.746;2023-01-28T16:38:29;24.15;;;11.95;;
71869;SDS011;59739;47.696;11.746;2023-01-28T16:40:55;19.90;;;10.93;;
71869;SDS011;59739;47.696;11.746;2023-01-28T16:43:23;22.90;;;12.15;;
71869;SDS011;59739;47.696;11.746;2023-01-28T16:45:49;22.75;;;11.75;;
71869;SDS011;59739;47.696;11.746;2023-01-28T16:48:15;21.20;;;12.10;;
71869;SDS011;59739;47.696;11.746;2023-01-28T16:50:41;19.77;;;10.82;;
71869;SDS011;59739;47.696;11.746;2023-01-28T16:53:18;23.17;;;12.45;;
71869;SDS011;59739;47.696;11.746;2023-01-28T16:55:56;20.60;;;11.27;;
71869;SDS011;59739;47.696;11.746;2023-01-28T16:58:23;18.33;;;10.45;;
71869;SDS011;59739;47.696;11.746;2023-01-28T17:00:51;21.02;;;11.35;;
71869;SDS011;59739;47.696;11.746;2023-01-28T17:03:20;20.10;;;10.98;;